Time;durP1;ratioP1;P1;durP2;ratioP2;P2;SDS_P1;SDS_P2;PMS_P1;PMS_P2;Temp;Humidity;BMP_temperature;BMP_pressure;BME280_temperature;BME280_humidity;BME280_pressure;Samples;Min_cycle;Max_cycle;Signal;HPM_P1;HPM_P2
2024/01/02 00:00:31;;;;;;;13.63;4.85;;;;;;;5.37;100.00;99764.94;5011972;28;20041;-79
2024/01/02 00:02:56;;;;;;;25.50;7.13;;;;;;;5.15;100.00;99744.22;5000930;28;20034;-78
2024/01/02 00:05:22;;;;;;;20.57;4.40;;;;;;;5.18;100.00;99767.75;5001314;28;20020;-79
2024/01/02 00:07:47;;;;;;;24.07;5.60;;;;;;;5.32;100.00;99772.50;5030566;28;20041;-80
2024/01/02 00:10:14;;;;;;;31.35;5.15;;;;;;;5.28;100.00;99765.84;5029204;28;20287;-79
2024/01/02 00:12:39;;;;;;;12.98;5.35;;;;;;;5.27;100.00;99759.72;5015785;28;20478;-79
2024/01/02 00:15:05;;;;;;;21.07;5.77;;;;;;;5.27;100.00;99756.25;5043776;28;20035;-78
2024/01/02 00:17:31;;;;;;;20.02;4.78;;;;;;;5.06;100.00;99736.22;5049424;28;20025;-79
2024/01/02 00:19:56;;;;;;;22.10;5.25;;;;;;;5.15;100.00;99750.38;5018670;28;20400;-79
2024/01/02 00:22:21;;;;;;;22.40;6.23;;;;;;;5.22;100.00;99745.28;5059246;28;20142;-79
2024/01/02 00:24:47;;;;;;;27.53;6.27;;;;;;;5.22;100.00;99730.25;5049130;28;20030;-79
2024/01/02 00:27:12;;;;;;;18.98;5.55;;;;;;;4.87;100.00;99702.00;5032780;28;20511;-78
2024/01/02 00:29:38;;;;;;;14.90;5.65;;;;;;;5.13;100.00;99740.88;5017138;28;20041;-77
2024/01/02 00:32:04;;;;;;;21.80;6.10;;;;;;;5.05;100.00;99739.00;5033222;28;20042;-79
2024/01/02 00:34:29;;;;;;;14.70;5.80;;;;;;;4.86;100.00;99718.84;5033559;28;20038;-78
2024/01/02 00:36:54;;;;;;;17.97;5.87;;;;;;;4.93;100.00;99734.94;5016422;28;20068;-79
2024/01/02 00:39:20;;;;;;;18.60;4.07;;;;;;;4.74;100.00;99722.69;5023389;28;20584;-80
2024/01/02 00:41:45;;;;;;;15.87;5.13;;;;;;;4.83;100.00;99735.00;5008844;28;20289;-79
2024/01/02 00:44:10;;;;;;;22.55;6.25;;;;;;;4.86;100.00;99742.63;5047968;28;20369;-79
2024/01/02 00:46:36;;;;;;;23.83;5.73;;;;;;;4.75;100.00;99748.13;5036799;28;20515;-79
2024/01/02 00:49:01;;;;;;;23.98;5.30;;;;;;;4.75;100.00;99743.69;5052124;28;20275;-79
2024/01/02 00:51:27;;;;;;;17.83;5.30;;;;;;;4.69;100.00;99739.00;5044986;28;20396;-78
2024/01/02 00:53:52;;;;;;;26.35;5.18;;;;;;;4.64;100.00;99742.09;5034235;28;20025;-78
2024/01/02 00:56:17;;;;;;;22.87;6.03;;;;;;;4.64;100.00;99744.72;5049201;28;20044;-79
2024/01/02 00:58:43;;;;;;;22.90;5.83;;;;;;;4.59;100.00;99738.25;5030134;28;20514;-78
2024/01/02 01:01:08;;;;;;;17.65;7.03;;;;;;;4.58;100.00;99745.31;5027914;28;20500;-79
2024/01/02 01:03:34;;;;;;;19.38;7.43;;;;;;;4.43;100.00;99745.00;5014191;28;20022;-79
2024/01/02 01:05:59;;;;;;;21.70;5.47;;;;;;;4.55;100.00;99750.91;5017478;28;20038;-78
2024/01/02 01:08:25;;;;;;;23.23;5.45;;;;;;;4.56;100.00;99754.38;5018077;28;20044;-80
2024/01/02 01:10:50;;;;;;;29.83;6.47;;;;;;;4.60;100.00;99755.75;5031946;28;20064;-79
2024/01/02 01:13:16;;;;;;;24.57;8.77;;;;;;;4.33;100.00;99725.72;5014690;28;20060;-79
2024/01/02 01:15:41;;;;;;;30.83;6.13;;;;;;;4.44;100.00;99746.63;5039331;28;20655;-78
2024/01/02 01:18:06;;;;;;;28.40;6.43;;;;;;;4.32;100.00;99726.69;5015073;28;20042;-78
2024/01/02 01:20:32;;;;;;;23.93;6.13;;;;;;;4.23;100.00;99740.78;5015661;28;20347;-78
2024/01/02 01:22:57;;;;;;;20.23;6.00;;;;;;;4.35;100.00;99760.72;5040873;28;20480;-79
2024/01/02 01:25:23;;;;;;;24.08;6.00;;;;;;;4.39;100.00;99748.06;5030063;28;20420;-79
2024/01/02 01:27:49;;;;;;;22.92;6.47;;;;;;;4.46;100.00;99750.97;5040266;28;20107;-78
2024/01/02 01:30:14;;;;;;;18.65;6.03;;;;;;;4.35;100.00;99736.13;5040392;28;20117;-78
2024/01/02 01:32:39;;;;;;;25.40;5.72;;;;;;;4.32;100.00;99742.53;4997435;28;20021;-79
2024/01/02 01:35:05;;;;;;;27.43;7.13;;;;;;;4.18;100.00;99735.94;5013393;28;20555;-78
2024/01/02 01:37:32;;;;;;;26.20;7.40;;;;;;;4.26;100.00;99750.22;5029310;28;20404;-78
2024/01/02 01:39:57;;;;;;;17.98;5.28;;;;;;;4.37;100.00;99744.75;5046320;28;20037;-79
2024/01/02 01:42:23;;;;;;;22.27;6.68;;;;;;;4.17;100.00;99731.63;5036344;28;20111;-79
2024/01/02 01:44:48;;;;;;;29.15;6.18;;;;;;;4.23;100.00;99738.97;5054017;28;20040;-79
2024/01/02 01:47:14;;;;;;;15.47;6.03;;;;;;;4.25;100.00;99735.34;5012558;28;20084;-78
2024/01/02 01:49:40;;;;;;;28.55;6.25;;;;;;;4.23;100.00;99725.75;5012860;28;20472;-78
2024/01/02 01:52:06;;;;;;;20.65;6.90;;;;;;;4.07;100.00;99722.91;5012967;28;20183;-78
2024/01/02 01:54:32;;;;;;;28.02;7.32;;;;;;;4.17;100.00;99738.72;5034359;28;20025;-78
2024/01/02 01:56:58;;;;;;;20.77;5.88;;;;;;;4.19;100.00;99737.59;5023059;28;20034;-78
2024/01/02 01:59:24;;;;;;;22.05;8.00;;;;;;;4.08;100.00;99729.03;5039345;28;20032;-78
2024/01/02 02:01:49;;;;;;;;;;;;;;;4.05;100.00;99732.81;5009525;28;20021;-79
2024/01/02 02:04:15;;;;;;;23.55;6.90;;;;;;;4.06;100.00;99725.72;5012492;28;19913;-79
2024/01/02 02:06:41;;;;;;;23.27;7.47;;;;;;;4.01;100.00;99726.16;5020735;28;20049;-79
2024/01/02 02:09:06;;;;;;;24.40;6.72;;;;;;;4.03;100.00;99732.13;5028362;28;20053;-79
2024/01/02 02:11:33;;;;;;;27.47;6.57;;;;;;;3.94;100.00;99720.59;5027640;28;20037;-79
2024/01/02 02:13:59;;;;;;;24.60;7.95;;;;;;;3.99;100.00;99736.84;5005889;28;20278;-79
2024/01/02 02:16:24;;;;;;;26.15;8.68;;;;;;;3.95;100.00;99734.63;5042645;28;20057;-78
2024/01/02 02:18:50;;;;;;;22.02;8.45;;;;;;;3.98;100.00;99732.56;5042926;28;20419;-79
2024/01/02 02:21:16;;;;;;;27.98;8.13;;;;;;;4.05;100.00;99734.59;5024998;28;20076;-79
2024/01/02 02:23:41;;;;;;;30.43;7.73;;;;;;;3.94;100.00;99710.03;5029108;28;20045;-78
2024/01/02 02:26:06;;;;;;;32.08;8.40;;;;;;;3.77;100.00;99713.44;5046392;28;20300;-77
2024/01/02 02:28:32;;;;;;;27.60;6.70;;;;;;;3.98;100.00;99729.91;5022520;28;20024;-78
2024/01/02 02:30:57;;;;;;;23.73;7.43;;;;;;;3.88;100.00;99715.88;5021078;28;20075;-79
2024/01/02 02:33:23;;;;;;;32.03;7.83;;;;;;;3.89;100.00;99728.13;5028761;28;20056;-79
2024/01/02 02:35:48;;;;;;;35.97;8.55;;;;;;;3.84;100.00;99727.75;5011374;28;20068;-78
2024/01/02 02:38:13;;;;;;;31.30;8.77;;;;;;;3.79;100.00;99728.16;5017196;28;20129;-79
2024/01/02 02:40:39;;;;;;;22.67;7.93;;;;;;;3.97;100.00;99732.69;4995531;28;20311;-79
2024/01/02 02:43:04;;;;;;;33.17;10.13;;;;;;;3.81;100.00;99720.91;4990829;28;20268;-79
2024/01/02 02:45:32;;;;;;;32.40;8.52;;;;;;;3.91;100.00;99717.41;5025542;28;20029;-79
2024/01/02 02:47:57;;;;;;;30.98;8.38;;;;;;;3.88;100.00;99712.41;5009147;28;20480;-78
2024/01/02 02:50:22;;;;;;;44.53;11.00;;;;;;;3.87;100.00;99716.06;4998104;28;20047;-78
2024/01/02 02:52:48;;;;;;;39.25;9.45;;;;;;;3.86;100.00;99717.84;4994805;28;20045;-78
2024/01/02 02:55:13;;;;;;;25.77;8.90;;;;;;;3.86;100.00;99704.63;4996338;28;20029;-79
2024/01/02 02:57:38;;;;;;;28.92;8.45;;;;;;;3.85;100.00;99694.25;5037892;28;20028;-77
2024/01/02 03:00:06;;;;;;;33.97;9.88;;;;;;;3.75;100.00;99686.34;5024485;28;20036;-78
2024/01/02 03:02:31;;;;;;;34.83;10.80;;;;;;;3.71;100.00;99685.81;5008042;28;20029;-78
2024/01/02 03:04:56;;;;;;;35.03;9.45;;;;;;;3.68;100.00;99680.81;5002179;28;20385;-78
2024/01/02 03:07:22;;;;;;;30.53;9.20;;;;;;;3.61;100.00;99676.25;4988578;28;20029;-78
2024/01/02 03:09:47;;;;;;;35.83;8.47;;;;;;;3.56;100.00;99672.25;5019926;28;20295;-78
2024/01/02 03:12:13;;;;;;;25.37;8.63;;;;;;;3.49;100.00;99687.00;4998080;28;20031;-78
2024/01/02 03:14:38;;;;;;;33.90;8.75;;;;;;;3.54;100.00;99689.19;4999075;28;20291;-77
2024/01/02 03:17:04;;;;;;;38.25;9.98;;;;;;;3.51;100.00;99692.97;5020044;28;20045;-78
2024/01/02 03:19:30;;;;;;;38.28;8.68;;;;;;;3.52;100.00;99694.59;5016586;28;20507;-78
2024/01/02 03:21:55;;;;;;;25.67;9.60;;;;;;;3.48;100.00;99695.03;4994137;28;20034;-78
2024/01/02 03:24:20;;;;;;;36.65;9.70;;;;;;;3.49;100.00;99683.50;4996722;28;20500;-77
2024/01/02 03:26:46;;;;;;;37.23;10.83;;;;;;;3.57;100.00;99697.66;5011398;28;20037;-78
2024/01/02 03:29:11;;;;;;;33.53;8.93;;;;;;;3.71;100.00;99682.34;4986349;28;20343;-78
2024/01/02 03:31:36;;;;;;;39.72;9.95;;;;;;;3.67;100.00;99675.66;5019093;28;20080;-77
2024/01/02 03:34:03;;;;;;;33.23;8.90;;;;;;;3.58;100.00;99669.44;5002841;28;20040;-77
2024/01/02 03:36:28;;;;;;;44.42;12.20;;;;;;;3.48;100.00;99651.00;5008360;28;20331;-78
2024/01/02 03:38:54;;;;;;;39.72;11.48;;;;;;;3.37;100.00;99636.19;5021469;28;20072;-78
2024/01/02 03:41:19;;;;;;;31.60;9.88;;;;;;;3.51;100.00;99653.38;5003418;28;20108;-78
2024/01/02 03:43:45;;;;;;;35.08;11.85;;;;;;;3.57;100.00;99649.31;5021599;28;20032;-78
2024/01/02 03:46:11;;;;;;;37.90;10.57;;;;;;;3.46;100.00;99637.13;5009815;28;20036;-79
2024/01/02 03:48:37;;;;;;;;;;;;;;;3.48;100.00;99631.69;5013871;28;20045;-78
2024/01/02 03:51:02;;;;;;;32.28;9.05;;;;;;;3.44;100.00;99625.91;4997563;28;19910;-77
2024/01/02 03:53:28;;;;;;;33.33;9.48;;;;;;;3.27;100.00;99624.81;5012055;28;20033;-77
2024/01/02 03:55:55;;;;;;;38.83;11.20;;;;;;;3.34;100.00;99628.53;5020459;28;20124;-77
2024/01/02 03:58:20;;;;;;;29.05;9.13;;;;;;;3.45;100.00;99634.63;5026401;28;20115;-78
2024/01/02 04:00:46;;;;;;;27.40;8.77;;;;;;;3.35;100.00;99613.56;5011008;28;20123;-77
2024/01/02 04:03:11;;;;;;;23.53;8.70;;;;;;;3.55;100.00;99627.50;4991552;28;20033;-78
2024/01/02 04:05:36;;;;;;;26.13;8.43;;;;;;;3.55;100.00;99609.84;5004757;28;20284;-77
2024/01/02 04:08:02;;;;;;;32.65;8.70;;;;;;;3.53;100.00;99603.88;4996580;28;20286;-77
2024/01/02 04:10:27;;;;;;;28.50;8.18;;;;;;;3.37;100.00;99586.06;5023595;28;20396;-78
2024/01/02 04:12:53;;;;;;;32.60;9.43;;;;;;;3.54;100.00;99604.75;5023575;28;20049;-78
2024/01/02 04:15:18;;;;;;;29.20;9.38;;;;;;;3.48;100.00;99586.84;4992733;28;20025;-78
2024/01/02 04:17:43;;;;;;;30.70;8.43;;;;;;;3.54;100.00;99591.56;5019671;28;20033;-78
2024/01/02 04:20:09;;;;;;;26.70;7.45;;;;;;;3.47;100.00;99577.28;5011455;28;20487;-78
2024/01/02 04:22:35;;;;;;;26.05;7.35;;;;;;;3.35;100.00;99572.19;5023395;28;20041;-78
2024/01/02 04:25:00;;;;;;;33.20;8.67;;;;;;;3.32;100.00;99564.53;5012473;28;20283;-78
2024/01/02 04:27:25;;;;;;;30.07;7.40;;;;;;;3.46;100.00;99580.88;5025080;28;20291;-78
2024/01/02 04:29:51;;;;;;;35.03;7.17;;;;;;;3.40;100.00;99569.09;5014041;28;20371;-78
2024/01/02 04:32:16;;;;;;;32.05;9.27;;;;;;;3.33;100.00;99555.66;4992823;28;20073;-78
2024/01/02 04:34:42;;;;;;;28.73;7.40;;;;;;;3.23;100.00;99549.59;5027079;28;20034;-79
2024/01/02 04:37:07;;;;;;;34.47;10.50;;;;;;;3.38;100.00;99560.50;5001052;28;20072;-79
2024/01/02 04:39:33;;;;;;;36.95;8.00;;;;;;;3.26;100.00;99548.47;5008070;28;20037;-77
2024/01/02 04:42:00;;;;;;;21.52;7.68;;;;;;;3.37;100.00;99557.03;5017968;28;20018;-77
2024/01/02 04:44:26;;;;;;;34.78;8.50;;;;;;;3.28;100.00;99543.88;5017876;28;20127;-78
2024/01/02 04:46:52;;;;;;;39.08;8.80;;;;;;;3.29;100.00;99543.72;5010755;28;20029;-78
2024/01/02 04:49:18;;;;;;;27.77;7.05;;;;;;;3.40;100.00;99545.34;5033167;28;20384;-78
2024/01/02 04:51:43;;;;;;;26.75;7.93;;;;;;;3.42;100.00;99535.50;5010142;28;20025;-78
2024/01/02 04:54:09;;;;;;;26.83;7.45;;;;;;;3.28;100.00;99515.69;5044747;28;20433;-78
2024/01/02 04:56:34;;;;;;;35.72;8.27;;;;;;;3.37;100.00;99511.31;5041933;28;20507;-79
2024/01/02 04:59:00;;;;;;;30.63;9.20;;;;;;;3.37;100.00;99506.91;5010422;28;20036;-77
2024/01/02 05:01:25;;;;;;;43.13;9.43;;;;;;;3.23;100.00;99499.47;5017280;28;20758;-78
2024/01/02 05:03:50;;;;;;;34.25;9.60;;;;;;;3.24;100.00;99500.31;5013428;28;20692;-78
2024/01/02 05:06:16;;;;;;;33.45;10.60;;;;;;;3.28;100.00;99504.31;5013540;28;20037;-78
2024/01/02 05:08:41;;;;;;;28.48;8.20;;;;;;;3.29;100.00;99487.50;5004079;28;20033;-77
2024/01/02 05:11:06;;;;;;;38.87;10.40;;;;;;;3.42;100.00;99492.41;5016680;28;20034;-77
2024/01/02 05:13:32;;;;;;;43.93;8.40;;;;;;;3.40;100.00;99479.41;5025166;28;20774;-79
2024/01/02 05:15:57;;;;;;;21.90;7.23;;;;;;;3.32;100.00;99459.00;5007420;28;20291;-77
2024/01/02 05:18:23;;;;;;;31.35;8.82;;;;;;;3.45;100.00;99455.22;5029336;28;20026;-78
2024/01/02 05:20:48;;;;;;;22.33;8.50;;;;;;;3.41;100.00;99440.66;5031333;28;20467;-78
2024/01/02 05:23:13;;;;;;;20.88;7.55;;;;;;;3.25;100.00;99431.56;5008155;28;20040;-79
2024/01/02 05:25:39;;;;;;;33.53;9.73;;;;;;;3.18;100.00;99427.84;5039460;28;20028;-78
2024/01/02 05:28:04;;;;;;;37.13;7.85;;;;;;;3.27;100.00;99440.16;5008637;28;20374;-78
2024/01/02 05:30:30;;;;;;;40.53;8.63;;;;;;;3.16;100.00;99432.44;5014425;28;20121;-79
2024/01/02 05:32:55;;;;;;;37.10;9.30;;;;;;;3.04;100.00;99430.97;5019349;28;20890;-78
2024/01/02 05:35:21;;;;;;;27.73;7.83;;;;;;;3.18;100.00;99441.03;4993266;28;20124;-79
2024/01/02 05:37:46;;;;;;;27.92;9.15;;;;;;;3.25;100.00;99431.56;5022370;28;20653;-78
2024/01/02 05:40:12;;;;;;;20.05;7.93;;;;;;;3.35;100.00;99435.00;5004459;28;20516;-77
2024/01/02 05:42:37;;;;;;;33.50;9.18;;;;;;;3.27;100.00;99416.41;5012077;28;20029;-78
2024/01/02 05:45:03;;;;;;;32.47;7.95;;;;;;;3.26;100.00;99409.50;5007133;28;20032;-78
2024/01/02 05:47:28;;;;;;;28.10;8.00;;;;;;;3.30;100.00;99399.47;5056055;28;20505;-78
2024/01/02 05:49:54;;;;;;;35.38;8.70;;;;;;;3.10;100.00;99398.75;5061061;23;20049;-73
2024/01/02 05:52:19;;;;;;;26.73;8.10;;;;;;;3.23;100.00;99404.53;5021846;28;20033;-73
2024/01/02 05:54:45;;;;;;;26.53;7.50;;;;;;;3.09;100.00;99397.09;5018669;28;20064;-73
2024/01/02 05:57:11;;;;;;;30.33;7.05;;;;;;;3.21;100.00;99398.56;5031636;28;20353;-73
2024/01/02 05:59:37;;;;;;;27.33;8.63;;;;;;;3.17;100.00;99391.91;5022739;28;20029;-73
2024/01/02 06:02:02;;;;;;;35.30;6.85;;;;;;;3.09;100.00;99390.03;5041267;28;20388;-73
2024/01/02 06:04:28;;;;;;;28.85;7.13;;;;;;;3.12;100.00;99394.16;5018434;28;20029;-73
2024/01/02 06:06:54;;;;;;;32.88;8.63;;;;;;;3.07;100.00;99393.78;5023412;28;20071;-74
2024/01/02 06:09:19;;;;;;;34.97;7.45;;;;;;;3.13;100.00;99399.28;5018128;28;20029;-73
2024/01/02 06:11:44;;;;;;;34.35;8.48;;;;;;;3.07;100.00;99388.50;5019770;28;20033;-73
2024/01/02 06:14:11;;;;;;;21.63;6.82;;;;;;;3.18;100.00;99388.28;5031523;28;20033;-73
2024/01/02 06:16:37;;;;;;;21.67;6.13;;;;;;;3.08;100.00;99377.81;5033894;28;20047;-73
2024/01/02 06:19:03;;;;;;;22.67;7.85;;;;;;;3.28;100.00;99383.81;5011652;28;20037;-73
2024/01/02 06:21:28;;;;;;;32.65;7.20;;;;;;;3.33;100.00;99386.00;5012877;28;20030;-73
2024/01/02 06:23:54;;;;;;;18.70;6.77;;;;;;;3.19;100.00;99366.22;5012432;28;20052;-74
2024/01/02 06:26:19;;;;;;;26.07;8.77;;;;;;;3.07;100.00;99368.25;5014078;28;20283;-74
2024/01/02 06:28:44;;;;;;;23.73;7.13;;;;;;;3.07;100.00;99368.25;5028916;28;20279;-74
2024/01/02 06:31:10;;;;;;;28.70;6.85;;;;;;;3.23;100.00;99364.97;5023555;28;20029;-73
2024/01/02 06:33:35;;;;;;;20.67;6.30;;;;;;;2.97;100.00;99343.72;5014417;28;20536;-73
2024/01/02 06:36:00;;;;;;;26.30;7.00;;;;;;;3.11;100.00;99350.31;5017467;28;20723;-74
2024/01/02 06:38:26;;;;;;;21.70;8.17;;;;;;;3.00;100.00;99346.09;5041837;28;20717;-74
2024/01/02 06:40:51;;;;;;;23.60;6.10;;;;;;;3.11;100.00;99343.25;5028516;28;20289;-73
2024/01/02 06:43:17;;;;;;;28.88;9.40;;;;;;;3.15;100.00;99341.13;5038283;28;20052;-73
2024/01/02 06:45:42;;;;;;;27.98;6.65;;;;;;;3.08;100.00;99326.88;5016854;28;20603;-73
2024/01/02 06:48:08;;;;;;;25.63;7.18;;;;;;;3.16;100.00;99334.84;5020760;28;20035;-73
2024/01/02 06:50:33;;;;;;;20.98;6.63;;;;;;;3.18;100.00;99327.63;5017506;28;20106;-73
2024/01/02 06:52:59;;;;;;;22.23;6.80;;;;;;;3.34;100.00;99329.59;5022196;28;20043;-73
2024/01/02 06:55:25;;;;;;;31.90;6.78;;;;;;;3.05;100.00;99299.00;5031094;28;20387;-73
2024/01/02 06:57:51;;;;;;;25.40;7.82;;;;;;;3.05;100.00;99298.19;5046616;28;20066;-73
2024/01/02 07:00:16;;;;;;;23.02;4.97;;;;;;;3.16;100.00;99301.41;5053937;28;20040;-73
2024/01/02 07:02:43;;;;;;;17.70;5.45;;;;;;;3.29;100.00;99308.94;5020865;28;20025;-73
2024/01/02 07:05:13;;;;;;;23.48;5.65;;;;;;;3.25;100.00;99299.66;5041462;28;20151;-73
2024/01/02 07:07:38;;;;;;;20.77;5.90;;;;;;;3.34;100.00;99297.94;5024422;28;20025;-74
2024/01/02 07:10:04;;;;;;;19.40;5.53;;;;;;;3.08;100.00;99284.69;5044661;28;20024;-74
2024/01/02 07:12:30;;;;;;;27.10;5.38;;;;;;;3.24;100.00;99295.38;5027172;28;20120;-74
2024/01/02 07:14:57;;;;;;;16.10;5.20;;;;;;;3.16;100.00;99293.50;5025498;28;20124;-74
2024/01/02 07:17:23;;;;;;;21.73;6.60;;;;;;;3.08;100.00;99271.50;5008558;28;20665;-74
2024/01/02 07:19:49;;;;;;;15.05;4.32;;;;;;;3.15;100.00;99281.28;5014448;28;20021;-74
2024/01/02 07:22:15;;;;;;;24.33;5.85;;;;;;;3.17;100.00;99281.16;5008692;28;20064;-74
2024/01/02 07:24:40;;;;;;;25.88;6.30;;;;;;;3.33;100.00;99291.03;5008070;28;20118;-74
2024/01/02 07:27:05;;;;;;;22.92;4.93;;;;;;;3.17;100.00;99271.41;5027739;28;20025;-74
2024/01/02 07:29:31;;;;;;;21.40;5.13;;;;;;;3.17;100.00;99263.50;5028090;28;20480;-74
2024/01/02 07:31:56;;;;;;;22.53;7.63;;;;;;;3.40;100.00;99283.34;5016015;28;20660;-74
2024/01/02 07:34:22;;;;;;;23.10;5.23;;;;;;;3.53;100.00;99270.56;5025614;28;20355;-75
2024/01/02 07:36:47;;;;;;;;;;;;;;;3.38;100.00;99257.09;5016374;28;20480;-74
2024/01/02 07:39:13;;;;;;;27.00;6.45;;;;;;;3.44;100.00;99250.38;5010819;28;19916;-74
2024/01/02 07:41:38;;;;;;;20.33;4.87;;;;;;;3.47;100.00;99242.16;5041186;28;20037;-74
2024/01/02 07:44:04;;;;;;;27.88;8.85;;;;;;;3.40;100.00;99234.03;5033155;28;20116;-74
2024/01/02 07:46:29;;;;;;;21.10;5.70;;;;;;;3.61;100.00;99235.50;5008011;28;20026;-74
2024/01/02 07:48:54;;;;;;;20.13;4.88;;;;;;;3.62;100.00;99222.13;5008432;28;20055;-74
2024/01/02 07:51:20;;;;;;;21.83;4.50;;;;;;;3.51;100.00;99211.81;5018199;28;20900;-74
2024/01/02 07:53:45;;;;;;;22.27;4.93;;;;;;;3.51;100.00;99214.47;5027712;28;20065;-73
2024/01/02 07:56:10;;;;;;;16.43;4.10;;;;;;;3.57;100.00;99219.13;5006867;28;20292;-74
2024/01/02 07:58:36;;;;;;;20.83;5.47;;;;;;;3.45;100.00;99188.72;5015741;28;20392;-74
2024/01/02 08:01:01;;;;;;;20.20;5.43;;;;;;;3.49;100.00;99184.75;5036641;28;20033;-74
2024/01/02 08:03:27;;;;;;;19.70;5.78;;;;;;;3.49;100.00;99192.69;5031821;28;20367;-74
2024/01/02 08:05:52;;;;;;;27.17;6.07;;;;;;;3.67;100.00;99198.72;5015014;28;20507;-74
2024/01/02 08:08:17;;;;;;;32.23;4.50;;;;;;;3.77;100.00;99186.28;5042774;28;20349;-74
2024/01/02 08:10:43;;;;;;;20.50;5.07;;;;;;;3.75;100.00;99177.69;5030741;28;20064;-74
2024/01/02 08:13:08;;;;;;;30.48;5.57;;;;;;;3.64;100.00;99167.38;5031818;28;20403;-73
2024/01/02 08:15:34;;;;;;;15.93;4.38;;;;;;;3.49;100.00;99153.94;5013584;28;20036;-74
2024/01/02 08:17:59;;;;;;;25.67;5.65;;;;;;;3.37;100.00;99152.53;5036032;28;20491;-74
2024/01/02 08:20:24;;;;;;;23.13;5.35;;;;;;;3.56;100.00;99167.34;5039409;28;20041;-74
2024/01/02 08:22:50;;;;;;;19.07;4.37;;;;;;;3.64;100.00;99171.84;5028245;28;20036;-74
2024/01/02 08:25:15;;;;;;;21.40;3.97;;;;;;;3.63;100.00;99176.28;5011633;28;20777;-74
2024/01/02 08:27:41;;;;;;;19.83;4.83;;;;;;;3.59;100.00;99172.31;4999476;28;20428;-73
2024/01/02 08:30:07;;;;;;;14.10;4.20;;;;;;;3.50;100.00;99157.41;5058489;28;20381;-74
2024/01/02 08:32:32;;;;;;;18.88;4.15;;;;;;;3.40;100.00;99164.63;5061959;28;20100;-74
2024/01/02 08:34:59;;;;;;;26.23;4.85;;;;;;;3.54;100.00;99175.41;5014199;28;20048;-74
2024/01/02 08:37:43;;;;;;;20.27;5.03;;;;;;;3.66;100.00;99175.16;5033427;28;20099;-74
2024/01/02 08:40:10;;;;;;;25.40;5.63;;;;;;;3.71;100.00;99184.25;5042428;28;20103;-74
2024/01/02 08:42:36;;;;;;;23.13;5.80;;;;;;;3.65;100.00;99165.56;5036996;28;20042;-74
2024/01/02 08:45:02;;;;;;;19.30;3.90;;;;;;;3.59;100.00;99159.94;5051803;28;20402;-74
2024/01/02 08:47:27;;;;;;;12.10;3.42;;;;;;;3.65;100.00;99170.84;5028421;28;20039;-74
2024/01/02 08:49:53;;;;;;;8.30;3.30;;;;;;;3.64;100.00;99162.09;5033681;28;20040;-73
2024/01/02 08:52:18;;;;;;;19.85;4.55;;;;;;;3.69;100.00;99165.09;5034242;28;20033;-74
2024/01/02 08:54:43;;;;;;;14.63;3.80;;;;;;;3.50;100.00;99160.03;5021649;28;20037;-74
2024/01/02 08:57:08;;;;;;;21.38;3.50;;;;;;;3.49;100.00;99169.78;5049864;28;20025;-74
2024/01/02 08:59:34;;;;;;;24.20;3.17;;;;;;;3.64;100.00;99174.47;5033890;28;20032;-74
2024/01/02 09:02:00;;;;;;;19.30;3.53;;;;;;;3.62;100.00;99173.81;5033551;28;20127;-74
2024/01/02 09:04:25;;;;;;;12.03;4.57;;;;;;;3.64;100.00;99172.66;5027230;28;20124;-74
2024/01/02 09:06:51;;;;;;;16.23;3.53;;;;;;;3.57;100.00;99182.19;5019056;28;20311;-74
2024/01/02 09:09:17;;;;;;;;;;;;;;;3.70;100.00;99181.75;5026085;28;20033;-74
2024/01/02 09:11:42;;;;;;;26.23;5.72;;;;;;;3.78;100.00;99180.00;5013703;28;20078;-74
2024/01/02 09:14:08;;;;;;;12.87;3.63;;;;;;;3.70;100.00;99165.91;5010690;28;20024;-73
2024/01/02 09:16:35;;;;;;;15.40;3.53;;;;;;;3.72;100.00;99180.66;5027752;28;20292;-74
2024/01/02 09:19:01;;;;;;;17.10;3.45;;;;;;;4.42;100.00;99237.72;5009614;28;20029;-75
2024/01/02 09:21:27;;;;;;;14.35;3.30;;;;;;;4.02;100.00;99200.41;5015609;28;20124;-74
2024/01/02 09:23:53;;;;;;;15.68;3.67;;;;;;;4.02;100.00;99181.09;5022121;28;20541;-74
2024/01/02 09:26:22;;;;;;;9.15;3.10;;;;;;;3.85;100.00;99163.53;5033485;28;20037;-74
2024/01/02 09:28:47;;;;;;;29.30;4.40;;;;;;;3.68;100.00;99157.34;5026107;28;20353;-74
2024/01/02 09:31:13;;;;;;;19.88;3.40;;;;;;;3.57;100.00;99163.72;5042301;28;20085;-74
2024/01/02 09:33:38;;;;;;;20.67;3.50;;;;;;;3.61;100.00;99172.16;5030403;28;20030;-75
2024/01/02 09:36:10;;;;;;;19.80;4.07;;;;;;;3.70;100.00;99179.13;5031052;28;20072;-74
2024/01/02 09:38:39;;;;;;;16.20;3.47;;;;;;;3.58;100.00;99168.00;5067335;28;20032;-74
2024/01/02 09:41:24;;;;;;;15.82;3.70;;;;;;;3.76;100.00;99176.69;5027366;28;20395;-74
2024/01/02 09:44:14;;;;;;;15.75;4.15;;;;;;;3.79;100.00;99171.09;5042749;28;20037;-74
2024/01/02 09:47:15;;;;;;;14.32;4.18;;;;;;;3.77;100.00;99159.88;5028457;28;20067;-75
2024/01/02 09:49:58;;;;;;;10.00;3.17;;;;;;;3.73;100.00;99166.44;5010269;28;20114;-75
2024/01/02 09:52:46;;;;;;;10.88;3.83;;;;;;;3.66;100.00;99170.69;5019806;28;20475;-75
2024/01/02 09:55:34;;;;;;;17.10;3.47;;;;;;;3.70;100.00;99176.47;5034100;28;20103;-76
2024/01/02 09:58:08;;;;;;;20.65;4.00;;;;;;;3.89;100.00;99172.81;5063920;28;20097;-76
2024/01/02 10:00:37;;;;;;;15.25;4.25;;;;;;;3.63;100.00;99149.91;5016376;28;20033;-76
2024/01/02 10:03:10;;;;;;;18.60;5.07;;;;;;;3.76;100.00;99163.47;5052358;28;20032;-75
2024/01/02 10:05:58;;;;;;;15.10;5.38;;;;;;;3.65;100.00;99147.09;5015578;28;20103;-78
2024/01/02 10:08:48;;;;;;;17.35;3.70;;;;;;;3.88;100.00;99164.03;5006878;28;20033;-76
2024/01/02 10:11:28;;;;;;;13.38;2.88;;;;;;;3.55;100.00;99140.09;5009959;28;20045;-78
2024/01/02 10:14:02;;;;;;;21.40;4.45;;;;;;;3.94;100.00;99162.59;5035310;28;20080;-77
2024/01/02 10:16:36;;;;;;;16.60;3.78;;;;;;;3.75;100.00;99142.53;5016313;28;20396;-77
2024/01/02 10:19:19;;;;;;;20.85;3.63;;;;;;;3.73;100.00;99137.41;5010247;28;20056;-77
2024/01/02 10:22:08;;;;;;;14.30;3.78;;;;;;;3.75;100.00;99143.38;5011083;28;20041;-77
2024/01/02 10:25:10;;;;;;;13.85;3.38;;;;;;;3.71;100.00;99123.53;5011684;28;20027;-77
2024/01/02 10:28:08;;;;;;;18.92;4.70;;;;;;;4.39;100.00;99162.22;5024312;28;20041;-76
2024/01/02 10:30:42;;;;;;;18.50;3.30;;;;;;;3.78;100.00;99105.25;5009104;28;20037;-77
2024/01/02 10:33:31;;;;;;;15.57;4.28;;;;;;;3.82;100.00;99096.03;5021190;28;20051;-78
2024/01/02 10:36:10;;;;;;;14.93;3.70;;;;;;;3.74;100.00;99099.47;5030748;28;20112;-78
2024/01/02 10:39:01;;;;;;;16.92;4.50;;;;;;;3.91;100.00;99118.84;5067316;28;20036;-78
2024/01/02 10:42:07;;;;;;;14.52;4.03;;;;;;;3.72;100.00;99106.72;5036051;28;20097;-78
2024/01/02 10:45:06;;;;;;;11.82;2.67;;;;;;;3.86;100.00;99107.91;5016206;28;20024;-77
2024/01/02 10:47:59;;;;;;;9.23;4.28;;;;;;;3.83;100.00;99094.22;5029685;28;20029;-78
2024/01/02 10:50:36;;;;;;;12.48;3.88;;;;;;;3.89;100.00;99096.25;5034578;28;20439;-77
2024/01/02 10:53:28;;;;;;;12.98;3.80;;;;;;;4.30;100.00;99114.81;5031409;28;20044;-77
2024/01/02 10:56:12;;;;;;;16.98;3.67;;;;;;;4.21;100.00;99101.63;5067923;28;20487;-78
2024/01/02 10:58:53;;;;;;;16.63;4.13;;;;;;;5.05;100.00;99120.81;5039521;28;20107;-78
2024/01/02 11:01:19;;;;;;;10.98;2.92;;;;;;;4.47;100.00;99066.28;5009892;28;20620;-78
2024/01/02 11:04:05;;;;;;;12.80;4.38;;;;;;;4.44;100.00;99048.13;5009453;28;20030;-77
2024/01/02 11:06:45;;;;;;;9.82;3.17;;;;;;;3.87;100.00;99003.16;5055559;28;20115;-78
2024/01/02 11:09:29;;;;;;;10.45;2.88;;;;;;;3.89;100.00;99025.78;5033070;28;20782;-78
2024/01/02 11:11:57;;;;;;;7.10;2.83;;;;;;;3.81;100.00;99018.63;4999590;28;20128;-78
2024/01/02 11:14:25;;;;;;;11.70;3.90;;;;;;;3.72;100.00;99011.72;5010216;28;20490;-78
2024/01/02 11:16:52;;;;;;;12.35;4.18;;;;;;;3.78;100.00;99026.06;5009697;28;20954;-79
2024/01/02 11:19:23;;;;;;;10.40;3.50;;;;;;;3.89;100.00;99032.88;5027635;28;20040;-78
2024/01/02 11:22:01;;;;;;;6.20;3.30;;;;;;;3.72;100.00;99013.50;5027928;28;20044;-78
2024/01/02 11:24:30;;;;;;;10.65;3.53;;;;;;;3.79;100.00;99028.56;5044650;28;20035;-77
2024/01/02 11:27:00;;;;;;;11.60;3.30;;;;;;;3.76;100.00;99022.75;5032718;28;20233;-78
2024/01/02 11:29:30;;;;;;;11.77;3.35;;;;;;;3.99;100.00;99039.66;5056685;28;20029;-77